Time;durP1;ratioP1;P1;durP2;ratioP2;P2;SDS_P1;SDS_P2;PMS_P1;PMS_P2;Temp;Humidity;BMP_temperature;BMP_pressure;BME280_temperature;BME280_humidity;BME280_pressure;Samples;Min_cycle;Max_cycle;Signal;HPM_P1;HPM_P2
2022/05/18 00:02:29;;;;;;;11.93;4.05;;;;;;;;;;6261421;28;20044;-50
2022/05/18 00:05:39;;;;;;;9.88;3.65;;;;;;;;;;6263204;28;20056;-52
2022/05/18 00:08:40;;;;;;;10.63;3.72;;;;;;;;;;6254888;28;21269;-50
2022/05/18 00:11:40;;;;;;;8.65;3.15;;;;;;;;;;6262724;28;20041;-49
2022/05/18 00:14:41;;;;;;;7.60;3.17;;;;;;;;;;6260310;28;20045;-49
2022/05/18 00:17:42;;;;;;;7.22;2.72;;;;;;;;;;6258104;28;20049;-51
2022/05/18 00:20:43;;;;;;;7.07;2.70;;;;;;;;;;6260347;28;20056;-49
2022/05/18 00:23:44;;;;;;;10.25;2.65;;;;;;;;;;6257022;28;21471;-49
2022/05/18 00:26:45;;;;;;;6.17;2.60;;;;;;;;;;6260195;28;20045;-50
2022/05/18 00:29:45;;;;;;;8.32;2.58;;;;;;;;;;6259017;28;20484;-49
2022/05/18 00:32:46;;;;;;;10.68;3.28;;;;;;;;;;6258093;28;20144;-50
2022/05/18 00:35:47;;;;;;;8.00;2.55;;;;;;;;;;6263581;28;20045;-50
2022/05/18 00:38:47;;;;;;;7.50;2.40;;;;;;;;;;6257142;28;20079;-49
2022/05/18 00:41:48;;;;;;;8.68;3.08;;;;;;;;;;6263077;28;20455;-50
2022/05/18 00:44:49;;;;;;;8.02;2.72;;;;;;;;;;6257807;28;20128;-48
2022/05/18 00:47:49;;;;;;;7.78;2.70;;;;;;;;;;6263977;28;20042;-49
2022/05/18 00:50:52;;;;;;;8.35;2.60;;;;;;;;;;6260912;28;20148;-50
2022/05/18 00:54:13;;;;;;;7.47;3.15;;;;;;;;;;6258601;28;20045;-48
2022/05/18 00:57:19;;;;;;;7.63;2.63;;;;;;;;;;6259875;28;20045;-50
2022/05/18 01:00:20;;;;;;;8.65;3.20;;;;;;;;;;6256780;28;20076;-50
2022/05/18 01:03:28;;;;;;;8.43;3.07;;;;;;;;;;6264095;28;20049;-50
2022/05/18 01:06:45;;;;;;;10.07;3.28;;;;;;;;;;6259299;28;20056;-53
2022/05/18 01:09:48;;;;;;;8.18;2.75;;;;;;;;;;6261086;28;20534;-48
2022/05/18 01:12:48;;;;;;;6.63;2.78;;;;;;;;;;6261362;28;20056;-50
2022/05/18 01:15:50;;;;;;;8.82;2.67;;;;;;;;;;6257167;28;20045;-50
2022/05/18 01:18:53;;;;;;;5.70;2.42;;;;;;;;;;6258473;28;20174;-49
2022/05/18 01:22:08;;;;;;;7.30;2.95;;;;;;;;;;6266331;28;20038;-50
2022/05/18 01:25:21;;;;;;;11.02;2.20;;;;;;;;;;6258825;28;20122;-49
2022/05/18 01:28:24;;;;;;;6.45;2.70;;;;;;;;;;6265082;28;20049;-51
2022/05/18 01:31:44;;;;;;;7.43;2.47;;;;;;;;;;6263344;28;20665;-51
2022/05/18 01:34:45;;;;;;;11.90;2.88;;;;;;;;;;6258351;28;20041;-49
2022/05/18 01:37:46;;;;;;;9.45;2.63;;;;;;;;;;6262254;28;20041;-49
2022/05/18 01:40:56;;;;;;;8.55;2.65;;;;;;;;;;6259722;28;20147;-49
2022/05/18 01:43:59;;;;;;;6.85;2.58;;;;;;;;;;6266638;28;20056;-48
2022/05/18 01:47:00;;;;;;;9.18;2.83;;;;;;;;;;6263694;28;20124;-50
2022/05/18 01:50:03;;;;;;;13.82;3.30;;;;;;;;;;6262973;28;20064;-49
2022/05/18 01:53:04;;;;;;;10.85;3.33;;;;;;;;;;6267063;28;20065;-49
2022/05/18 01:56:08;;;;;;;10.32;3.40;;;;;;;;;;6264362;28;20068;-49
2022/05/18 01:59:09;;;;;;;12.45;4.10;;;;;;;;;;6262339;28;20894;-49
2022/05/18 02:02:14;;;;;;;10.63;3.55;;;;;;;;;;6262239;28;20056;-49
2022/05/18 02:05:14;;;;;;;11.13;3.78;;;;;;;;;;6264044;28;20053;-49
2022/05/18 02:08:19;;;;;;;9.98;2.92;;;;;;;;;;6267889;28;20061;-48
2022/05/18 02:11:20;;;;;;;7.97;3.08;;;;;;;;;;6262231;28;20859;-49
2022/05/18 02:14:22;;;;;;;9.45;2.80;;;;;;;;;;6263698;28;20099;-49
2022/05/18 02:17:23;;;;;;;10.32;2.78;;;;;;;;;;6260849;28;20183;-50
2022/05/18 02:20:24;;;;;;;8.75;2.70;;;;;;;;;;6262763;28;20409;-49
2022/05/18 02:23:24;;;;;;;5.85;2.40;;;;;;;;;;6258324;28;20120;-50
2022/05/18 02:26:25;;;;;;;6.78;2.65;;;;;;;;;;6260807;28;20514;-52
2022/05/18 02:29:25;;;;;;;8.63;2.30;;;;;;;;;;6264961;28;20045;-50
2022/05/18 02:32:26;;;;;;;8.38;2.38;;;;;;;;;;6260019;28;20094;-48
2022/05/18 02:35:27;;;;;;;7.43;2.40;;;;;;;;;;6265294;28;20530;-49
2022/05/18 02:38:28;;;;;;;6.80;2.15;;;;;;;;;;6259116;28;20064;-49
2022/05/18 02:41:28;;;;;;;6.30;2.85;;;;;;;;;;6261287;28;20081;-48
2022/05/18 02:44:29;;;;;;;7.32;2.67;;;;;;;;;;6264506;28;20055;-49
2022/05/18 02:47:30;;;;;;;5.57;2.30;;;;;;;;;;6262522;28;20076;-50
2022/05/18 02:50:33;;;;;;;10.68;2.63;;;;;;;;;;6261603;28;20135;-52
2022/05/18 02:53:34;;;;;;;;;;;;;;;;;;6260626;28;20041;-49
2022/05/18 02:56:34;;;;;;;7.22;2.05;;;;;;;;;;6262107;28;19924;-50
2022/05/18 02:59:35;;;;;;;7.82;2.38;;;;;;;;;;6258223;28;20125;-50
2022/05/18 03:02:36;;;;;;;7.68;2.42;;;;;;;;;;6262842;28;20137;-48
2022/05/18 03:05:36;;;;;;;4.38;2.30;;;;;;;;;;6262226;28;20045;-48
2022/05/18 03:08:39;;;;;;;7.32;2.38;;;;;;;;;;6263570;28;20049;-50
2022/05/18 03:11:40;;;;;;;7.78;2.78;;;;;;;;;;6262161;28;20068;-51
2022/05/18 03:14:41;;;;;;;7.97;2.93;;;;;;;;;;6264131;28;20163;-50
2022/05/18 03:17:42;;;;;;;7.50;2.63;;;;;;;;;;6258384;28;20377;-49
2022/05/18 03:24:03;;;;;;;6.15;2.47;;;;;;;;;;6261467;28;20053;-49
2022/05/18 03:27:03;;;;;;;13.13;3.50;;;;;;;;;;6258715;28;20547;-49
2022/05/18 03:30:04;;;;;;;9.27;2.65;;;;;;;;;;6260822;28;20441;-49
2022/05/18 03:33:05;;;;;;;6.47;2.53;;;;;;;;;;6258113;28;20048;-48
2022/05/18 03:36:08;;;;;;;11.65;2.90;;;;;;;;;;6259082;28;20160;-49
2022/05/18 03:39:09;;;;;;;7.18;2.85;;;;;;;;;;6258876;28;20145;-49
2022/05/18 03:42:10;;;;;;;8.93;2.92;;;;;;;;;;6258903;28;20048;-48
2022/05/18 03:45:11;;;;;;;7.05;2.78;;;;;;;;;;6260323;28;20178;-50
2022/05/18 03:48:13;;;;;;;10.15;3.00;;;;;;;;;;6259407;28;20106;-49
2022/05/18 03:51:16;;;;;;;5.93;2.70;;;;;;;;;;6262241;28;20114;-51
2022/05/18 03:54:17;;;;;;;;;;;;;;;;;;6257060;28;20056;-49
2022/05/18 03:57:19;;;;;;;13.63;3.10;;;;;;;;;;6254595;28;19971;-50
2022/05/18 04:00:20;;;;;;;5.88;2.45;;;;;;;;;;6261088;28;20525;-49
2022/05/18 04:03:24;;;;;;;7.90;2.90;;;;;;;;;;6254432;28;20058;-49
2022/05/18 04:06:25;;;;;;;4.65;2.25;;;;;;;;;;6248580;28;20068;-49
2022/05/18 04:09:25;;;;;;;8.15;2.60;;;;;;;;;;6243203;28;20045;-51
2022/05/18 04:12:29;;;;;;;6.07;2.42;;;;;;;;;;6249984;28;20048;-49
2022/05/18 04:15:30;;;;;;;5.25;2.22;;;;;;;;;;6262066;28;20496;-49
2022/05/18 04:18:32;;;;;;;6.03;2.10;;;;;;;;;;6260481;28;20473;-50
2022/05/18 04:21:33;;;;;;;14.60;2.60;;;;;;;;;;6260163;28;20526;-48
2022/05/18 04:24:33;;;;;;;11.63;2.50;;;;;;;;;;6260482;28;20049;-49
2022/05/18 04:27:34;;;;;;;8.10;2.35;;;;;;;;;;6258416;28;20347;-49
2022/05/18 04:30:35;;;;;;;7.47;2.40;;;;;;;;;;6261420;28;20128;-49
2022/05/18 04:33:36;;;;;;;6.63;2.30;;;;;;;;;;6260801;28;20776;-49
2022/05/18 04:36:36;;;;;;;4.97;2.17;;;;;;;;;;6264384;28;20053;-49
2022/05/18 04:39:37;;;;;;;6.20;2.35;;;;;;;;;;6260274;28;20056;-50
2022/05/18 04:42:38;;;;;;;6.63;3.05;;;;;;;;;;6253382;28;20043;-48
2022/05/18 04:45:44;;;;;;;5.93;2.13;;;;;;;;;;6257467;28;20049;-50
2022/05/18 04:48:45;;;;;;;6.90;2.42;;;;;;;;;;6256308;28;20052;-49
2022/05/18 04:51:46;;;;;;;5.65;2.00;;;;;;;;;;6259458;28;20045;-48
2022/05/18 04:54:47;;;;;;;4.38;2.35;;;;;;;;;;6265899;28;20053;-49
2022/05/18 04:57:48;;;;;;;8.30;2.28;;;;;;;;;;6262843;28;20500;-48
2022/05/18 05:01:01;;;;;;;6.78;2.30;;;;;;;;;;6265221;28;20045;-49
2022/05/18 05:04:02;;;;;;;6.07;2.08;;;;;;;;;;6263800;28;20072;-49
2022/05/18 05:07:04;;;;;;;6.28;2.13;;;;;;;;;;6265045;28;20128;-51
2022/05/18 05:10:07;;;;;;;6.27;2.33;;;;;;;;;;6263419;28;20045;-49
2022/05/18 05:13:08;;;;;;;7.45;2.05;;;;;;;;;;6265382;28;20087;-52
2022/05/18 05:16:10;;;;;;;7.18;2.40;;;;;;;;;;6262144;28;20041;-49
2022/05/18 05:19:11;;;;;;;;;;;;;;;;;;6261847;28;20141;-49
2022/05/18 05:22:12;;;;;;;4.97;2.10;;;;;;;;;;6261440;28;19944;-49
2022/05/18 05:25:14;;;;;;;4.72;2.15;;;;;;;;;;6260405;28;20053;-50
2022/05/18 05:28:14;;;;;;;5.10;2.20;;;;;;;;;;6263843;28;20487;-48
2022/05/18 05:31:15;;;;;;;8.35;2.40;;;;;;;;;;6266537;28;20139;-52
2022/05/18 05:34:16;;;;;;;7.13;2.83;;;;;;;;;;6262961;28;20523;-48
2022/05/18 05:37:16;;;;;;;7.03;2.47;;;;;;;;;;6263158;28;20049;-49
2022/05/18 05:40:17;;;;;;;9.05;2.47;;;;;;;;;;6264630;28;20539;-48
2022/05/18 05:43:18;;;;;;;8.85;3.10;;;;;;;;;;6257824;28;20152;-48
2022/05/18 05:46:19;;;;;;;9.32;2.92;;;;;;;;;;6260486;28;20123;-52
2022/05/18 05:49:20;;;;;;;6.43;2.35;;;;;;;;;;6264442;28;20049;-48
2022/05/18 05:52:20;;;;;;;10.40;2.90;;;;;;;;;;6265374;28;20045;-48
2022/05/18 05:55:21;;;;;;;9.38;3.00;;;;;;;;;;6263580;28;20123;-49
2022/05/18 05:58:22;;;;;;;11.15;2.83;;;;;;;;;;6255319;28;20099;-49
2022/05/18 06:01:23;;;;;;;15.35;2.97;;;;;;;;;;6259252;28;20033;-54
2022/05/18 06:04:23;;;;;;;10.95;2.53;;;;;;;;;;6260946;28;20090;-49
2022/05/18 06:07:24;;;;;;;7.18;2.35;;;;;;;;;;6263408;28;20055;-48
2022/05/18 06:10:25;;;;;;;9.60;2.72;;;;;;;;;;6264732;28;20049;-49
2022/05/18 06:13:28;;;;;;;6.65;2.78;;;;;;;;;;6263130;28;20491;-49
2022/05/18 06:16:29;;;;;;;8.48;2.60;;;;;;;;;;6262227;28;20049;-49
2022/05/18 06:19:33;;;;;;;10.00;3.00;;;;;;;;;;6260575;28;20491;-50
2022/05/18 06:22:34;;;;;;;9.90;3.35;;;;;;;;;;6264097;28;20438;-49
2022/05/18 06:25:35;;;;;;;12.88;3.90;;;;;;;;;;6261296;28;20077;-49
2022/05/18 06:28:36;;;;;;;9.25;3.30;;;;;;;;;;6265661;28;20061;-49
2022/05/18 06:31:37;;;;;;;11.00;2.70;;;;;;;;;;6255442;28;20174;-49
2022/05/18 06:34:38;;;;;;;6.78;2.50;;;;;;;;;;6261803;28;20062;-49
2022/05/18 06:37:38;;;;;;;8.00;2.75;;;;;;;;;;6260470;28;20473;-54
2022/05/18 06:44:02;;;;;;;12.13;3.08;;;;;;;;;;6246734;28;20130;-49
2022/05/18 06:47:04;;;;;;;9.90;3.05;;;;;;;;;;6262004;28;20103;-52
2022/05/18 06:50:07;;;;;;;10.73;3.10;;;;;;;;;;6262855;28;20052;-48
2022/05/18 06:53:07;;;;;;;8.93;2.30;;;;;;;;;;6260024;28;20065;-52
2022/05/18 06:56:08;;;;;;;6.30;2.40;;;;;;;;;;6260651;28;20188;-50
2022/05/18 06:59:11;;;;;;;6.22;3.13;;;;;;;;;;6261370;28;20057;-50
2022/05/18 07:02:11;;;;;;;5.53;2.13;;;;;;;;;;6260769;28;20052;-50
2022/05/18 07:05:12;;;;;;;6.75;2.30;;;;;;;;;;6263945;28;20045;-66
2022/05/18 07:08:13;;;;;;;14.57;2.90;;;;;;;;;;6262291;28;20137;-52
2022/05/18 07:11:14;;;;;;;7.57;2.17;;;;;;;;;;6259381;28;20563;-48
2022/05/18 07:14:16;;;;;;;4.78;1.85;;;;;;;;;;6257500;28;20871;-49
2022/05/18 07:17:17;;;;;;;6.07;1.73;;;;;;;;;;6263130;28;20056;-58
2022/05/18 07:20:18;;;;;;;8.02;2.28;;;;;;;;;;6260434;28;20072;-50
2022/05/18 07:23:19;;;;;;;6.50;1.88;;;;;;;;;;6257689;28;20484;-49
2022/05/18 07:26:21;;;;;;;9.95;2.20;;;;;;;;;;6263945;28;20049;-49
2022/05/18 07:29:21;;;;;;;5.82;2.17;;;;;;;;;;6261658;28;20055;-59
2022/05/18 07:32:22;;;;;;;7.18;2.53;;;;;;;;;;6260505;28;20108;-53
2022/05/18 07:35:23;;;;;;;5.00;1.40;;;;;;;;;;6256470;28;20041;-51
2022/05/18 07:38:26;;;;;;;5.35;1.58;;;;;;;;;;6261905;28;20045;-49
2022/05/18 07:41:27;;;;;;;6.05;1.60;;;;;;;;;;6264013;28;20452;-51
2022/05/18 07:44:28;;;;;;;5.30;2.42;;;;;;;;;;6262320;28;20059;-50
2022/05/18 07:47:30;;;;;;;7.75;1.80;;;;;;;;;;6260569;28;20733;-52
2022/05/18 07:50:31;;;;;;;;;;;;;;;;;;6262851;28;20107;-54
2022/05/18 07:53:31;;;;;;;5.70;1.70;;;;;;;;;;6255400;28;19925;-50
2022/05/18 07:56:34;;;;;;;5.43;1.40;;;;;;;;;;6259323;28;20045;-51
2022/05/18 07:59:35;;;;;;;6.57;1.60;;;;;;;;;;6261875;28;20045;-49
2022/05/18 08:02:36;;;;;;;7.82;2.00;;;;;;;;;;6256285;28;20171;-49
2022/05/18 08:05:37;;;;;;;5.23;1.57;;;;;;;;;;6258284;28;20511;-50
2022/05/18 08:08:37;;;;;;;5.93;1.55;;;;;;;;;;6256765;28;20053;-50
2022/05/18 08:15:06;;;;;;;4.45;1.40;;;;;;;;;;6254282;28;20049;-49
2022/05/18 08:18:07;;;;;;;5.82;1.80;;;;;;;;;;6258544;28;20554;-52
2022/05/18 08:21:07;;;;;;;13.75;2.65;;;;;;;;;;6259973;28;20128;-52
2022/05/18 08:24:09;;;;;;;3.50;1.45;;;;;;;;;;6259528;28;20049;-50
2022/05/18 08:27:14;;;;;;;5.85;1.35;;;;;;;;;;6262000;28;20056;-49
2022/05/18 08:30:19;;;;;;;3.50;1.38;;;;;;;;;;6263168;28;20144;-53
2022/05/18 08:33:20;;;;;;;4.32;1.63;;;;;;;;;;6263778;28;20428;-50
2022/05/18 08:36:24;;;;;;;3.45;1.60;;;;;;;;;;6264785;28;20059;-54
2022/05/18 08:39:24;;;;;;;5.32;1.60;;;;;;;;;;6261799;28;20060;-50
2022/05/18 08:42:25;;;;;;;5.50;1.73;;;;;;;;;;6265570;28;20500;-50
2022/05/18 08:45:29;;;;;;;3.35;1.70;;;;;;;;;;6266280;28;20496;-50
2022/05/18 08:48:42;;;;;;;4.35;2.10;;;;;;;;;;6258753;28;20786;-52
2022/05/18 08:51:45;;;;;;;;;;;;;;;;;;6266190;28;20049;-50
2022/05/18 08:55:23;;;;;;;5.75;1.83;;;;;;;;;;6264189;28;19928;-50
2022/05/18 08:58:37;;;;;;;4.40;1.77;;;;;;;;;;6251112;28;20056;-49
2022/05/18 09:01:41;;;;;;;5.32;1.85;;;;;;;;;;6265304;28;20413;-49
2022/05/18 09:04:55;;;;;;;5.13;2.00;;;;;;;;;;6266308;28;20057;-50
2022/05/18 09:08:06;;;;;;;4.47;2.00;;;;;;;;;;6252598;28;20076;-50
2022/05/18 09:11:27;;;;;;;7.30;1.80;;;;;;;;;;6267907;28;20056;-51
2022/05/18 09:14:34;;;;;;;7.63;2.05;;;;;;;;;;6260473;28;20069;-54
2022/05/18 09:17:57;;;;;;;11.48;2.20;;;;;;;;;;6263027;28;20044;-53
2022/05/18 09:21:11;;;;;;;3.58;1.83;;;;;;;;;;6264350;28;20053;-53
2022/05/18 09:24:51;;;;;;;4.45;1.90;;;;;;;;;;6255465;28;20052;-49
2022/05/18 09:28:07;;;;;;;6.75;1.88;;;;;;;;;;6262324;28;20076;-50
2022/05/18 09:31:30;;;;;;;4.15;1.65;;;;;;;;;;6260923;28;20052;-50
2022/05/18 09:34:45;;;;;;;5.80;1.80;;;;;;;;;;6259849;28;20480;-53
2022/05/18 09:37:55;;;;;;;7.80;2.15;;;;;;;;;;6261143;28;20048;-50
2022/05/18 09:40:57;;;;;;;4.15;2.10;;;;;;;;;;6260725;28;20076;-52
2022/05/18 09:44:06;;;;;;;;;;;;;;;;;;6264985;28;20041;-52
2022/05/18 09:47:09;;;;;;;4.60;1.80;;;;;;;;;;6264376;28;19948;-49
2022/05/18 09:50:09;;;;;;;6.30;1.85;;;;;;;;;;6258389;28;20045;-50
2022/05/18 09:53:11;;;;;;;5.35;2.15;;;;;;;;;;6261918;28;20060;-50
2022/05/18 09:56:19;;;;;;;5.30;1.90;;;;;;;;;;6264125;28;20095;-50
2022/05/18 09:59:30;;;;;;;6.90;1.88;;;;;;;;;;6263047;28;20045;-49
2022/05/18 10:09:48;;;;;;;4.72;1.48;;;;;;;;;;6255587;28;20051;-55
2022/05/18 10:12:56;;;;;;;3.58;1.45;;;;;;;;;;6264206;28;20542;-50
2022/05/18 10:16:11;;;;;;;5.55;1.60;;;;;;;;;;6260447;28;20044;-53
2022/05/18 10:19:21;;;;;;;4.10;1.50;;;;;;;;;;6255292;28;20069;-52
2022/05/18 10:22:28;;;;;;;6.63;1.60;;;;;;;;;;6253774;28;20061;-48
2022/05/18 10:25:42;;;;;;;4.03;1.40;;;;;;;;;;6264623;28;20152;-50
2022/05/18 10:28:43;;;;;;;7.22;1.75;;;;;;;;;;6260044;28;20500;-50
2022/05/18 10:32:00;;;;;;;4.55;1.60;;;;;;;;;;6259859;28;20060;-57
2022/05/18 10:35:01;;;;;;;3.33;1.60;;;;;;;;;;6263570;28;20053;-49
2022/05/18 10:38:18;;;;;;;5.07;1.90;;;;;;;;;;6262495;28;20110;-59
2022/05/18 10:41:24;;;;;;;5.10;1.20;;;;;;;;;;6265100;28;20680;-50
2022/05/18 10:44:32;;;;;;;5.57;1.20;;;;;;;;;;6263325;28;20451;-52
2022/05/18 10:47:36;;;;;;;4.22;1.33;;;;;;;;;;6262792;28;20774;-51
2022/05/18 10:50:39;;;;;;;3.45;1.50;;;;;;;;;;6261228;28;20041;-51
2022/05/18 10:53:48;;;;;;;5.05;1.33;;;;;;;;;;6260844;28;20073;-53
2022/05/18 10:56:50;;;;;;;4.55;1.38;;;;;;;;;;6257323;28;20472;-50
2022/05/18 11:00:10;;;;;;;4.43;1.27;;;;;;;;;;6263313;28;20330;-55
2022/05/18 11:03:20;;;;;;;5.68;1.30;;;;;;;;;;6263874;28;20095;-52
2022/05/18 11:06:37;;;;;;;4.10;1.20;;;;;;;;;;6259988;28;20053;-52
2022/05/18 11:09:40;;;;;;;5.55;1.35;;;;;;;;;;6259926;28;20040;-55
2022/05/18 11:12:46;;;;;;;4.65;1.30;;;;;;;;;;6258554;28;20132;-55
2022/05/18 11:16:37;;;;;;;5.38;1.40;;;;;;;;;;6259700;28;20140;-52
2022/05/18 11:19:51;;;;;;;4.82;1.48;;;;;;;;;;6251976;28;20052;-50
2022/05/18 11:23:16;;;;;;;5.53;1.48;;;;;;;;;;6252767;28;20480;-54
2022/05/18 11:26:54;;;;;;;6.25;1.33;;;;;;;;;;6260333;28;20060;-51
2022/05/18 11:30:05;;;;;;;6.10;1.30;;;;;;;;;;6263406;28;20049;-50
2022/05/18 11:33:24;;;;;;;2.15;0.90;;;;;;;;;;6258439;28;20048;-51
2022/05/18 11:36:39;;;;;;;4.85;1.33;;;;;;;;;;6260827;28;20053;-51
2022/05/18 11:39:56;;;;;;;5.63;1.50;;;;;;;;;;6262956;28;20048;-52
2022/05/18 11:43:28;;;;;;;3.65;1.40;;;;;;;;;;6260793;28;20072;-51
2022/05/18 11:46:40;;;;;;;5.55;1.25;;;;;;;;;;6257499;28;20048;-53
2022/05/18 11:50:19;;;;;;;5.43;1.27;;;;;;;;;;6258375;28;20049;-56
2022/05/18 11:53:32;;;;;;;2.85;1.25;;;;;;;;;;6280534;28;20052;-53
2022/05/18 11:57:11;;;;;;;3.17;1.23;;;;;;;;;;6256811;28;20072;-54
2022/05/18 12:00:44;;;;;;;4.88;1.65;;;;;;;;;;6258530;28;20414;-55
2022/05/18 12:04:04;;;;;;;4.32;1.30;;;;;;;;;;6252735;28;20096;-52
2022/05/18 12:07:14;;;;;;;5.75;1.38;;;;;;;;;;6256832;28;20052;-52
2022/05/18 12:10:33;;;;;;;4.90;1.30;;;;;;;;;;6259268;28;20080;-52
2022/05/18 12:13:41;;;;;;;3.85;1.30;;;;;;;;;;6260534;28;20045;-51
2022/05/18 12:17:01;;;;;;;7.32;1.30;;;;;;;;;;6261756;28;20045;-53
2022/05/18 12:20:06;;;;;;;3.75;1.30;;;;;;;;;;6259975;28;20139;-53
2022/05/18 12:23:11;;;;;;;3.90;1.45;;;;;;;;;;6260556;28;20040;-54
2022/05/18 12:26:15;;;;;;;3.97;1.30;;;;;;;;;;6259830;28;20057;-56
2022/05/18 12:29:20;;;;;;;3.40;1.15;;;;;;;;;;6255889;28;20045;-51
2022/05/18 12:32:22;;;;;;;5.00;1.30;;;;;;;;;;6253023;28;20052;-51
2022/05/18 12:35:35;;;;;;;5.00;1.60;;;;;;;;;;6255268;28;20536;-51
2022/05/18 12:38:51;;;;;;;5.72;1.00;;;;;;;;;;6255728;28;20053;-52
2022/05/18 12:41:56;;;;;;;4.53;1.33;;;;;;;;;;6260994;28;20041;-51
2022/05/18 12:45:03;;;;;;;2.85;1.20;;;;;;;;;;6261992;28;20416;-51
2022/05/18 12:48:36;;;;;;;6.07;1.40;;;;;;;;;;6255528;28;20133;-52
2022/05/18 12:51:45;;;;;;;3.75;1.33;;;;;;;;;;6261159;28;20072;-52
2022/05/18 12:54:53;;;;;;;5.13;1.40;;;;;;;;;;6257449;28;20048;-50
2022/05/18 12:58:05;;;;;;;4.28;1.45;;;;;;;;;;6257903;28;20513;-53
2022/05/18 13:01:16;;;;;;;3.17;1.27;;;;;;;;;;6254557;28;20096;-53
2022/05/18 13:04:16;;;;;;;3.90;1.23;;;;;;;;;;6258433;28;20049;-55
2022/05/18 13:07:26;;;;;;;4.97;1.13;;;;;;;;;;6259515;28;20114;-54
2022/05/18 13:10:37;;;;;;;4.97;1.35;;;;;;;;;;6260355;28;20056;-55
2022/05/18 13:14:06;;;;;;;4.68;1.38;;;;;;;;;;6254225;28;20096;-56
2022/05/18 13:17:11;;;;;;;6.55;1.42;;;;;;;;;;6265215;28;20141;-56
2022/05/18 13:20:46;;;;;;;4.05;1.40;;;;;;;;;;6265585;28;20126;-61
2022/05/18 13:23:53;;;;;;;6.85;1.40;;;;;;;;;;6262753;28;20053;-58
2022/05/18 13:27:03;;;;;;;3.42;1.50;;;;;;;;;;6261861;28;20061;-62
2022/05/18 13:30:23;;;;;;;3.50;1.50;;;;;;;;;;6265052;28;20048;-55
2022/05/18 13:33:29;;;;;;;11.10;1.48;;;;;;;;;;6263132;28;20470;-52
2022/05/18 13:36:38;;;;;;;3.63;1.42;;;;;;;;;;6260251;28;20059;-55
2022/05/18 13:39:43;;;;;;;4.75;1.33;;;;;;;;;;6264502;28;20053;-59
2022/05/18 13:42:45;;;;;;;5.38;1.40;;;;;;;;;;6265125;28;20143;-56
2022/05/18 13:46:03;;;;;;;4.38;1.30;;;;;;;;;;6261450;28;20480;-55
2022/05/18 13:49:21;;;;;;;6.18;1.38;;;;;;;;;;6262986;28;20452;-56
2022/05/18 13:52:27;;;;;;;3.75;1.30;;;;;;;;;;6255850;28;20141;-58
2022/05/18 13:55:28;;;;;;;8.85;1.83;;;;;;;;;;6261234;28;20519;-56
2022/05/18 13:58:29;;;;;;;;;;;;;;;;;;6261603;28;20532;-56
2022/05/18 14:01:37;;;;;;;3.97;1.50;;;;;;;;;;6263421;28;19930;-57
2022/05/18 14:04:41;;;;;;;4.38;1.52;;;;;;;;;;6262376;28;20079;-59
2022/05/18 14:07:45;;;;;;;4.30;1.63;;;;;;;;;;6256989;28;20159;-57
2022/05/18 14:10:46;;;;;;;4.72;1.63;;;;;;;;;;6246472;28;20052;-62
2022/05/18 14:13:49;;;;;;;10.33;2.23;;;;;;;;;;6255382;28;20179;-59
2022/05/18 14:17:01;;;;;;;7.88;1.80;;;;;;;;;;6249112;28;20087;-58
2022/05/18 14:20:08;;;;;;;7.75;1.60;;;;;;;;;;6250123;28;20164;-57
2022/05/18 14:23:19;;;;;;;4.10;1.48;;;;;;;;;;6254223;28;20134;-54
2022/05/18 14:26:25;;;;;;;6.22;1.60;;;;;;;;;;6253106;28;20682;-58
2022/05/18 14:29:38;;;;;;;4.97;1.45;;;;;;;;;;6250657;28;20076;-59
2022/05/18 14:32:53;;;;;;;4.25;1.20;;;;;;;;;;6252949;28;20091;-63
2022/05/18 14:35:55;;;;;;;4.60;2.13;;;;;;;;;;6250801;28;20818;-61
2022/05/18 14:39:04;;;;;;;6.18;1.50;;;;;;;;;;6250518;28;20087;-61
2022/05/18 14:42:05;;;;;;;5.00;1.45;;;;;;;;;;6251629;28;20084;-58
2022/05/18 14:45:12;;;;;;;5.95;1.70;;;;;;;;;;6253018;28;20706;-65
2022/05/18 14:48:20;;;;;;;4.60;1.88;;;;;;;;;;6246632;28;20088;-61
2022/05/18 14:51:30;;;;;;;4.30;1.50;;;;;;;;;;6250553;28;20488;-55
2022/05/18 14:54:51;;;;;;;5.72;2.10;;;;;;;;;;6249167;28;20057;-59
2022/05/18 14:57:51;;;;;;;4.25;1.50;;;;;;;;;;6249322;28;20091;-56
2022/05/18 15:00:57;;;;;;;6.83;1.63;;;;;;;;;;6252489;28;20056;-61
2022/05/18 15:04:09;;;;;;;6.82;1.60;;;;;;;;;;6250770;28;20574;-59
2022/05/18 15:07:25;;;;;;;10.27;1.90;;;;;;;;;;6254199;28;20052;-56
2022/05/18 15:10:35;;;;;;;10.68;2.00;;;;;;;;;;6249348;28;20053;-59
2022/05/18 15:13:53;;;;;;;4.90;1.45;;;;;;;;;;6252901;28;20080;-60
2022/05/18 15:16:55;;;;;;;5.88;1.83;;;;;;;;;;6252715;28;20052;-56
2022/05/18 15:19:58;;;;;;;;;;;;;;;;;;6251250;28;20829;-61
2022/05/18 15:23:19;;;;;;;4.13;1.60;;;;;;;;;;6249597;28;19924;-60
2022/05/18 15:26:34;;;;;;;5.70;1.52;;;;;;;;;;6250329;28;20099;-55
2022/05/18 15:29:36;;;;;;;4.80;1.63;;;;;;;;;;6250847;28;20110;-62
2022/05/18 15:32:39;;;;;;;6.82;1.80;;;;;;;;;;6253991;28;20052;-61
2022/05/18 15:35:45;;;;;;;5.20;1.73;;;;;;;;;;6251779;28;20091;-59
2022/05/18 15:38:49;;;;;;;5.20;2.03;;;;;;;;;;6248728;28;20053;-62
2022/05/18 15:41:50;;;;;;;5.55;1.67;;;;;;;;;;6249684;28;20492;-56
2022/05/18 15:44:51;;;;;;;4.00;1.58;;;;;;;;;;6250419;28;20116;-63
2022/05/18 15:47:57;;;;;;;8.63;1.90;;;;;;;;;;6255677;28;20052;-66
2022/05/18 15:50:59;;;;;;;6.57;1.95;;;;;;;;;;6255238;28;20742;-59
2022/05/18 15:54:02;;;;;;;;;;;;;;;;;;6261385;28;20057;-58
2022/05/18 15:57:03;;;;;;;7.13;1.70;;;;;;;;;;6257465;28;19929;-66
2022/05/18 16:00:05;;;;;;;6.33;2.00;;;;;;;;;;6252910;28;20557;-57
2022/05/18 16:03:09;;;;;;;4.45;1.85;;;;;;;;;;6256560;28;20052;-63
2022/05/18 16:06:11;;;;;;;5.10;1.67;;;;;;;;;;6256613;28;20060;-62
2022/05/18 16:09:11;;;;;;;;;;;;;;;;;;6254352;28;20048;-56
2022/05/18 16:12:13;;;;;;;4.78;1.77;;;;;;;;;;6255980;28;20507;-60
2022/05/18 16:15:17;;;;;;;6.68;1.70;;;;;;;;;;6255247;28;20108;-58
2022/05/18 16:18:18;;;;;;;6.15;2.00;;;;;;;;;;6255389;28;20095;-64
2022/05/18 16:21:23;;;;;;;7.60;1.73;;;;;;;;;;6254422;28;20118;-57
2022/05/18 16:24:27;;;;;;;5.97;2.17;;;;;;;;;;6253037;28;20052;-63
2022/05/18 16:27:28;;;;;;;9.57;2.03;;;;;;;;;;6250259;28;20158;-59
2022/05/18 16:30:29;;;;;;;4.10;1.90;;;;;;;;;;6250845;28;20267;-59
2022/05/18 16:33:30;;;;;;;6.97;2.03;;;;;;;;;;6253175;28;20176;-62
2022/05/18 16:36:31;;;;;;;8.82;2.47;;;;;;;;;;6247626;28;20077;-52
2022/05/18 16:39:32;;;;;;;6.23;1.93;;;;;;;;;;6250038;28;20059;-56
2022/05/18 16:42:33;;;;;;;7.18;2.17;;;;;;;;;;6250599;28;20416;-57
2022/05/18 16:45:34;;;;;;;5.63;2.13;;;;;;;;;;6254726;28;20045;-61
2022/05/18 16:48:34;;;;;;;4.20;1.90;;;;;;;;;;6254590;28;20310;-57
2022/05/18 16:51:36;;;;;;;5.23;1.73;;;;;;;;;;6260645;28;20507;-57
2022/05/18 16:54:38;;;;;;;8.32;2.30;;;;;;;;;;6260274;28;20070;-56
2022/05/18 16:57:40;;;;;;;7.20;2.08;;;;;;;;;;6260949;28;20563;-53
2022/05/18 17:00:40;;;;;;;5.80;2.22;;;;;;;;;;6257976;28;20132;-56
2022/05/18 17:03:41;;;;;;;9.40;2.23;;;;;;;;;;6260728;28;20098;-57
2022/05/18 17:06:41;;;;;;;7.47;2.20;;;;;;;;;;6259472;28;20139;-56
2022/05/18 17:09:42;;;;;;;8.40;4.40;;;;;;;;;;6257610;28;20053;-59
2022/05/18 17:12:44;;;;;;;8.37;2.90;;;;;;;;;;6260855;28;20045;-58
2022/05/18 17:15:45;;;;;;;11.18;4.70;;;;;;;;;;6259198;28;21029;-58
2022/05/18 17:18:45;;;;;;;8.80;4.50;;;;;;;;;;6257300;28;20136;-54
2022/05/18 17:21:46;;;;;;;8.07;3.00;;;;;;;;;;6260063;28;20617;-54
2022/05/18 17:24:47;;;;;;;8.60;4.37;;;;;;;;;;6259217;28;20784;-57
2022/05/18 17:27:47;;;;;;;18.90;15.03;;;;;;;;;;6261273;28;20037;-54
2022/05/18 17:30:50;;;;;;;16.57;12.67;;;;;;;;;;6257805;28;20098;-53
2022/05/18 17:33:50;;;;;;;12.95;9.23;;;;;;;;;;6259951;28;20573;-62
2022/05/18 17:36:52;;;;;;;14.73;6.47;;;;;;;;;;6254987;28;20057;-60
2022/05/18 17:39:53;;;;;;;5.88;3.00;;;;;;;;;;6256090;28;20080;-58
2022/05/18 17:42:53;;;;;;;6.27;2.40;;;;;;;;;;6260168;28;20047;-57
2022/05/18 17:45:55;;;;;;;6.93;2.30;;;;;;;;;;6258207;28;20060;-60
2022/05/18 17:48:56;;;;;;;9.80;2.10;;;;;;;;;;6254093;28;20075;-61
2022/05/18 17:52:02;;;;;;;7.67;1.80;;;;;;;;;;6257830;28;20694;-61
2022/05/18 17:55:06;;;;;;;9.65;2.30;;;;;;;;;;6255493;28;20651;-63
2022/05/18 17:58:06;;;;;;;7.10;1.88;;;;;;;;;;6255307;28;20462;-61
2022/05/18 18:01:07;;;;;;;7.10;1.97;;;;;;;;;;6255443;28;20059;-58
2022/05/18 18:04:08;;;;;;;6.35;2.03;;;;;;;;;;6255721;28;20052;-63
2022/05/18 18:07:12;;;;;;;15.33;3.07;;;;;;;;;;6255031;28;20468;-56
2022/05/18 18:10:16;;;;;;;8.65;2.83;;;;;;;;;;6256475;28;20119;-59
2022/05/18 18:13:17;;;;;;;9.10;2.90;;;;;;;;;;6256984;28;20056;-59
2022/05/18 18:16:22;;;;;;;11.27;2.70;;;;;;;;;;6252993;28;20041;-61
2022/05/18 18:19:23;;;;;;;9.15;2.42;;;;;;;;;;6254481;28;20095;-60
2022/05/18 18:22:24;;;;;;;9.53;3.10;;;;;;;;;;6255291;28;20059;-61
2022/05/18 18:25:26;;;;;;;5.77;2.53;;;;;;;;;;6255900;28;20053;-60
2022/05/18 18:28:27;;;;;;;9.90;3.30;;;;;;;;;;6255456;28;20400;-58
2022/05/18 18:31:28;;;;;;;11.80;4.57;;;;;;;;;;6254618;28;20057;-59
2022/05/18 18:34:29;;;;;;;32.93;4.23;;;;;;;;;;6257735;28;20041;-58
2022/05/18 18:37:30;;;;;;;15.70;3.80;;;;;;;;;;6255782;28;20107;-59
2022/05/18 18:40:38;;;;;;;11.30;4.20;;;;;;;;;;6253908;28;21289;-56
2022/05/18 18:43:39;;;;;;;14.40;6.78;;;;;;;;;;6256881;28;20057;-58
2022/05/18 18:46:40;;;;;;;13.02;6.57;;;;;;;;;;6256722;28;20163;-58
2022/05/18 18:49:41;;;;;;;16.93;5.40;;;;;;;;;;6255519;28;20543;-58